createdAt,value
2018-02-20T00:00:53.734Z,101232.99
2018-02-20T00:03:22.121Z,101225.34
2018-02-20T00:05:52.750Z,101232.48
2018-02-20T00:08:21.061Z,101231.44
2018-02-20T00:10:49.433Z,101235.61
2018-02-20T00:13:17.783Z,101232.09
2018-02-20T00:15:46.156Z,101228.95
2018-02-20T00:18:15.251Z,101228.34
2018-02-20T00:20:43.619Z,101228.48
2018-02-20T00:23:11.945Z,101229.47
2018-02-20T00:25:40.280Z,101226.96
2018-02-20T00:28:08.646Z,101219.62
2018-02-20T00:30:36.975Z,101219.40
2018-02-20T00:33:05.340Z,101216.17
2018-02-20T00:35:33.684Z,101215.48
2018-02-20T00:38:02.048Z,101220.58
2018-02-20T00:40:30.784Z,101215.26
2018-02-20T00:42:59.112Z,101215.58
2018-02-20T00:45:27.480Z,101218.14
2018-02-20T00:47:56.256Z,101215.33
2018-02-20T00:50:25.388Z,101167.38
2018-02-20T00:52:53.728Z,101219.34
2018-02-20T00:55:22.872Z,101218.61
2018-02-20T00:57:51.244Z,101213.86
2018-02-20T01:00:20.068Z,101210.47
2018-02-20T01:02:48.418Z,101213.64
2018-02-20T01:05:16.772Z,101210.70
2018-02-20T01:07:45.118Z,101216.59
2018-02-20T01:10:14.216Z,101216.40
2018-02-20T01:12:43.339Z,101218.89
2018-02-20T01:15:11.678Z,101215.95
2018-02-20T01:17:40.047Z,101220.64
2018-02-20T01:20:08.393Z,101216.62
2018-02-20T01:22:36.728Z,101225.12
2018-02-20T01:25:06.221Z,101219.50
2018-02-20T01:27:35.325Z,101215.86
2018-02-20T01:30:04.824Z,101216.02
2018-02-20T01:32:33.936Z,101211.71
2018-02-20T01:35:02.441Z,101210.13
2018-02-20T01:37:30.780Z,101215.00
2018-02-20T01:39:59.160Z,101210.60
2018-02-20T01:42:28.263Z,101213.30
2018-02-20T01:44:57.387Z,101210.19
2018-02-20T01:47:25.767Z,101214.40
2018-02-20T01:49:54.107Z,101217.41
2018-02-20T01:52:23.244Z,101215.70
2018-02-20T01:54:51.571Z,101216.89
2018-02-20T01:57:19.918Z,101211.39
2018-02-20T01:59:48.263Z,101210.37
2018-02-20T02:02:16.611Z,101210.85
2018-02-20T02:04:45.758Z,101214.05
2018-02-20T02:07:14.167Z,101213.63
2018-02-20T02:09:42.499Z,101215.78
2018-02-20T02:12:10.875Z,101213.97
2018-02-20T02:14:39.255Z,101207.16
2018-02-20T02:17:07.591Z,101211.64
2018-02-20T02:19:46.621Z,101214.34
2018-02-20T02:22:15.715Z,101218.02
2018-02-20T02:24:44.855Z,101214.14
2018-02-20T02:27:13.199Z,101217.52
2018-02-20T02:29:42.287Z,101216.46
2018-02-20T02:32:11.419Z,101220.02
2018-02-20T02:34:39.745Z,101211.41
2018-02-20T02:37:08.114Z,101213.56
2018-02-20T02:39:36.442Z,101212.81
2018-02-20T02:42:04.823Z,101205.23
2018-02-20T02:44:33.162Z,101211.62
2018-02-20T02:47:01.504Z,101209.44
2018-02-20T02:49:29.863Z,101208.83
2018-02-20T02:51:58.587Z,101214.59
2018-02-20T02:54:26.912Z,101214.97
2018-02-20T02:56:55.298Z,101216.23
2018-02-20T02:59:23.621Z,101219.23
2018-02-20T03:01:51.957Z,101218.34
2018-02-20T03:04:20.323Z,101214.39
2018-02-20T03:06:48.680Z,101214.35
2018-02-20T03:09:17.776Z,101176.53
2018-02-20T03:11:46.930Z,101218.86
2018-02-20T03:14:15.256Z,101226.39
2018-02-20T03:16:44.373Z,101221.41
2018-02-20T03:19:15.466Z,101224.78
2018-02-20T03:21:43.832Z,101224.38
2018-02-20T03:24:12.211Z,101218.81
2018-02-20T03:26:40.556Z,101222.02
2018-02-20T03:29:08.887Z,101221.09
2018-02-20T03:31:37.295Z,101218.16
2018-02-20T03:34:05.795Z,101214.55
2018-02-20T03:36:34.130Z,101216.02
2018-02-20T03:39:03.358Z,101215.63
2018-02-20T03:41:31.686Z,101214.02
2018-02-20T03:44:00.059Z,101216.71
2018-02-20T03:46:28.442Z,101217.56
2018-02-20T03:48:56.774Z,101212.27
2018-02-20T03:51:25.146Z,101213.05
2018-02-20T03:53:53.462Z,101211.30
2018-02-20T03:56:21.839Z,101215.44
2018-02-20T03:58:50.182Z,101218.17
2018-02-20T04:01:18.570Z,101218.48
2018-02-20T04:03:46.906Z,101217.69
2018-02-20T04:06:16.027Z,101215.80
2018-02-20T04:08:44.403Z,101213.28
2018-02-20T04:11:12.761Z,101212.48
2018-02-20T04:13:41.134Z,101211.12
2018-02-20T04:16:10.238Z,101213.81
2018-02-20T04:18:39.390Z,101208.74
2018-02-20T04:21:07.724Z,101214.48
2018-02-20T04:23:36.089Z,101207.28
2018-02-20T04:26:05.202Z,101204.47
2018-02-20T04:28:33.512Z,101207.80
2018-02-20T04:31:01.871Z,101206.48
2018-02-20T04:33:30.203Z,101209.46
2018-02-20T04:35:59.373Z,101210.58
2018-02-20T04:38:27.693Z,101211.64
2018-02-20T04:40:56.877Z,101207.09
2018-02-20T04:43:25.233Z,101209.20
2018-02-20T04:45:53.556Z,101211.06
2018-02-20T04:48:21.967Z,101216.05
2018-02-20T04:50:50.304Z,101210.14
2018-02-20T04:53:18.658Z,101212.47
2018-02-20T04:55:47.003Z,101225.38
2018-02-20T04:58:15.373Z,101216.91
2018-02-20T05:00:43.730Z,101221.23
2018-02-20T05:03:12.065Z,101227.00
2018-02-20T05:05:40.412Z,101218.97
2018-02-20T05:08:09.148Z,101221.45
2018-02-20T05:10:38.282Z,101225.52
2018-02-20T05:13:06.622Z,101224.04
2018-02-20T05:15:35.765Z,101221.23
2018-02-20T05:18:04.106Z,101223.89
2018-02-20T05:20:32.820Z,101221.14
2018-02-20T05:23:01.173Z,101220.25
2018-02-20T05:25:29.506Z,101218.59
2018-02-20T05:27:57.890Z,101222.28
2018-02-20T05:30:26.218Z,101225.86
2018-02-20T05:32:54.576Z,101213.25
2018-02-20T05:35:23.683Z,101230.33
2018-02-20T05:37:52.030Z,101227.11
2018-02-20T05:40:20.402Z,101232.11
2018-02-20T05:42:48.785Z,101237.73
2018-02-20T05:45:17.897Z,101240.34
2018-02-20T05:47:47.030Z,101241.07
2018-02-20T05:50:16.134Z,101242.94
2018-02-20T05:52:44.557Z,101248.83
2018-02-20T05:55:13.674Z,101248.21
2018-02-20T05:57:42.793Z,101252.19
2018-02-20T06:00:11.161Z,101254.08
2018-02-20T06:02:39.514Z,101253.23
2018-02-20T06:05:08.654Z,101247.17
2018-02-20T06:07:37.012Z,101254.92
2018-02-20T06:10:05.784Z,101253.77
2018-02-20T06:12:34.124Z,101254.37
2018-02-20T06:15:02.568Z,101255.42
2018-02-20T06:17:30.949Z,101250.32
2018-02-20T06:19:59.323Z,101264.78
2018-02-20T06:22:27.661Z,101262.16
2018-02-20T06:24:56.802Z,101259.06
2018-02-20T06:27:25.926Z,101255.48
2018-02-20T06:29:54.650Z,101260.87
2018-02-20T06:32:23.404Z,101259.88
2018-02-20T06:34:53.081Z,101259.39
2018-02-20T06:37:21.425Z,101262.39
2018-02-20T06:39:49.801Z,101263.38
2018-02-20T06:42:18.162Z,101268.78
2018-02-20T06:44:47.293Z,101263.30
2018-02-20T06:47:15.689Z,101265.52
2018-02-20T06:49:44.026Z,101271.98
2018-02-20T06:52:13.112Z,101267.02
2018-02-20T06:54:42.285Z,101267.30
2018-02-20T06:57:10.637Z,101269.15
2018-02-20T06:59:39.013Z,101273.20
2018-02-20T07:02:07.336Z,101270.06
2018-02-20T07:04:36.455Z,101272.36
2018-02-20T07:07:04.805Z,101273.38
2018-02-20T07:09:33.958Z,101267.90
2018-02-20T07:12:02.286Z,101265.50
2018-02-20T07:14:31.381Z,101270.98
2018-02-20T07:16:59.743Z,101265.40
2018-02-20T07:19:28.064Z,101268.61
2018-02-20T07:21:56.379Z,101265.03
2018-02-20T07:24:24.745Z,101275.70
2018-02-20T07:26:53.148Z,101268.66
2018-02-20T07:29:21.554Z,101266.38
2018-02-20T07:31:49.897Z,101273.81
2018-02-20T07:34:18.277Z,101274.39
2018-02-20T07:36:46.620Z,101270.57
2018-02-20T07:39:14.970Z,101272.84
2018-02-20T07:41:43.336Z,101273.83
2018-02-20T07:44:12.433Z,101278.44
2018-02-20T07:46:41.544Z,101282.31
2018-02-20T07:49:09.920Z,101284.41
2018-02-20T07:51:38.243Z,101285.37
2018-02-20T07:54:06.618Z,101286.83
2018-02-20T07:56:35.009Z,101287.75
2018-02-20T07:59:03.348Z,101283.45
2018-02-20T08:01:31.684Z,101290.75
2018-02-20T08:04:01.545Z,101289.34
2018-02-20T08:06:30.664Z,101290.75
2018-02-20T08:08:58.979Z,101285.56
2018-02-20T08:11:27.348Z,101285.31
2018-02-20T08:13:56.507Z,101278.35
2018-02-20T08:16:24.844Z,101279.97
2018-02-20T08:18:53.199Z,101277.75
2018-02-20T08:21:22.275Z,101285.63
2018-02-20T08:23:50.652Z,101283.57
2018-02-20T08:26:18.966Z,101283.92
2018-02-20T08:28:47.350Z,101279.22
2018-02-20T08:31:15.707Z,101285.91
2018-02-20T08:33:44.048Z,101284.43
2018-02-20T08:36:12.431Z,101289.05
2018-02-20T08:38:40.763Z,101291.80
2018-02-20T08:41:09.111Z,101293.27
2018-02-20T08:43:37.422Z,101287.64
2018-02-20T08:46:05.770Z,101291.02
2018-02-20T08:48:34.101Z,101291.88
2018-02-20T08:51:02.508Z,101280.92
2018-02-20T08:53:30.848Z,101283.14
2018-02-20T08:55:59.264Z,101275.75
2018-02-20T08:58:27.607Z,101278.20
2018-02-20T09:00:55.970Z,101270.53
2018-02-20T09:03:24.300Z,101272.13
2018-02-20T09:05:52.633Z,101277.69
2018-02-20T09:08:21.009Z,101277.14
2018-02-20T09:10:49.328Z,101275.62
2018-02-20T09:13:17.632Z,101279.02
2018-02-20T09:15:46.744Z,101280.25
2018-02-20T09:18:15.104Z,101272.36
2018-02-20T09:20:44.192Z,101266.34
2018-02-20T09:23:12.550Z,101267.52
2018-02-20T09:25:40.865Z,101265.68
2018-02-20T09:28:09.990Z,101271.53
2018-02-20T09:30:38.346Z,101258.23
2018-02-20T09:33:06.696Z,101266.06
2018-02-20T09:35:35.071Z,101264.89
2018-02-20T09:38:04.187Z,101268.25
2018-02-20T09:40:32.518Z,101268.23
2018-02-20T09:43:00.904Z,101261.77
2018-02-20T09:45:29.219Z,101262.94
2018-02-20T09:47:57.522Z,101248.97
2018-02-20T09:50:26.649Z,101267.87
2018-02-20T09:52:55.004Z,101266.50
2018-02-20T09:55:23.348Z,101268.24
2018-02-20T09:57:52.465Z,101272.86
2018-02-20T10:00:20.889Z,101273.27
2018-02-20T10:02:49.217Z,101278.13
2018-02-20T10:05:18.317Z,101279.00
2018-02-20T10:07:46.669Z,101274.06
2018-02-20T10:10:15.801Z,101276.05
2018-02-20T10:12:44.148Z,101273.42
2018-02-20T10:15:14.007Z,101274.25
2018-02-20T10:17:42.333Z,101276.57
2018-02-20T10:20:11.415Z,101273.03
2018-02-20T10:22:40.551Z,101278.65
2018-02-20T10:25:08.879Z,101285.20
2018-02-20T10:27:37.209Z,101281.30
2018-02-20T10:30:05.557Z,101276.98
2018-02-20T10:32:34.823Z,101278.98
2018-02-20T10:35:03.179Z,101275.87
2018-02-20T10:37:31.530Z,101283.45
2018-02-20T10:39:59.851Z,101274.77
2018-02-20T10:42:28.200Z,101276.16
2018-02-20T10:44:56.524Z,101278.31
2018-02-20T10:47:24.877Z,101279.17
2018-02-20T10:49:53.200Z,101270.98
2018-02-20T10:52:22.336Z,101270.47
2018-02-20T10:54:50.682Z,101272.23
2018-02-20T10:57:19.017Z,101269.36
2018-02-20T10:59:47.361Z,101265.41
2018-02-20T11:02:15.685Z,101256.70
2018-02-20T11:04:44.058Z,101265.34
2018-02-20T11:07:12.372Z,101260.06
2018-02-20T11:09:40.742Z,101264.82
2018-02-20T11:12:09.059Z,101265.06
2018-02-20T11:14:37.371Z,101256.63
2018-02-20T11:17:05.717Z,101255.34
2018-02-20T11:19:34.097Z,101251.67
2018-02-20T11:22:02.430Z,101246.83
2018-02-20T11:24:30.747Z,101241.66
2018-02-20T11:26:59.114Z,101235.85
2018-02-20T11:29:27.447Z,101244.26
2018-02-20T11:31:56.531Z,101240.30
2018-02-20T11:34:24.890Z,101240.04
2018-02-20T11:36:53.218Z,101237.17
2018-02-20T11:39:21.553Z,101237.30
2018-02-20T11:41:49.914Z,101234.50
2018-02-20T11:44:18.247Z,101233.63
2018-02-20T11:46:46.611Z,101240.75
2018-02-20T11:49:15.702Z,101233.23
2018-02-20T11:51:44.067Z,101234.45
2018-02-20T11:54:13.195Z,101229.36
2018-02-20T11:56:41.564Z,101225.00
2018-02-20T11:59:09.944Z,101219.72
2018-02-20T12:01:38.273Z,101222.46
2018-02-20T12:04:06.646Z,101227.86
2018-02-20T12:06:34.995Z,101229.74
2018-02-20T12:09:03.360Z,101228.24
2018-02-20T12:11:31.677Z,101228.33
2018-02-20T12:14:00.023Z,101230.07
2018-02-20T12:16:28.399Z,101224.03
2018-02-20T12:18:56.716Z,101218.41
2018-02-20T12:21:25.071Z,101221.92
2018-02-20T12:23:53.406Z,101221.19
2018-02-20T12:26:22.540Z,101221.91
2018-02-20T12:28:50.874Z,101217.38
2018-02-20T12:31:19.994Z,101219.08
2018-02-20T12:33:48.315Z,101220.59
2018-02-20T12:36:16.652Z,101219.63
2018-02-20T12:38:45.012Z,101218.58
2018-02-20T12:41:14.108Z,101217.53
2018-02-20T12:43:43.243Z,101215.61
2018-02-20T12:46:11.592Z,101212.59
2018-02-20T12:48:39.913Z,101218.50
2018-02-20T12:51:08.259Z,101214.40
2018-02-20T12:53:36.655Z,101214.94
2018-02-20T12:56:04.947Z,101216.72
2018-02-20T12:58:33.278Z,101207.66
2018-02-20T13:01:01.644Z,101202.00
2018-02-20T13:03:30.777Z,101202.18
2018-02-20T13:05:59.109Z,101205.36
2018-02-20T13:08:28.202Z,101200.99
2018-02-20T13:10:57.342Z,101200.08
2018-02-20T13:13:25.674Z,101206.27
2018-02-20T13:15:54.776Z,101209.81
2018-02-20T13:18:23.900Z,101207.67
2018-02-20T13:20:52.262Z,101202.48
2018-02-20T13:23:20.638Z,101195.30
2018-02-20T13:25:49.740Z,101200.97
2018-02-20T13:28:18.097Z,101191.97
2018-02-20T13:30:47.198Z,101197.96
2018-02-20T13:33:16.320Z,101198.78
2018-02-20T13:35:44.654Z,101191.16
2018-02-20T13:38:13.014Z,101191.06
2018-02-20T13:40:41.322Z,101192.68
2018-02-20T13:43:10.434Z,101193.39
2018-02-20T13:45:39.180Z,101200.99
2018-02-20T13:48:07.520Z,101202.13
2018-02-20T13:50:35.874Z,101207.22
2018-02-20T13:53:04.276Z,101210.07
2018-02-20T13:55:32.812Z,101203.31
2018-02-20T13:58:01.948Z,101205.38
2018-02-20T14:00:30.309Z,101204.19
2018-02-20T14:02:59.074Z,101202.97
2018-02-20T14:05:28.163Z,101209.83
2018-02-20T14:07:56.522Z,101206.86
2018-02-20T14:10:24.838Z,101202.89
2018-02-20T14:12:53.162Z,101206.52
2018-02-20T14:15:21.549Z,101210.79
2018-02-20T14:17:49.920Z,101209.13
2018-02-20T14:20:18.263Z,101216.50
2018-02-20T14:22:46.650Z,101214.40
2018-02-20T14:25:15.060Z,101206.44
2018-02-20T14:27:43.429Z,101207.89
2018-02-20T14:30:11.801Z,101204.66
2018-02-20T14:32:40.238Z,101205.41
2018-02-20T14:35:09.379Z,101195.52
2018-02-20T14:37:37.729Z,101200.15
2018-02-20T14:40:06.090Z,101200.18
2018-02-20T14:42:35.237Z,101194.55
2018-02-20T14:45:03.578Z,101202.89
2018-02-20T14:47:43.107Z,101202.90
2018-02-20T14:50:12.220Z,101213.52
2018-02-20T14:52:40.600Z,101206.42
2018-02-20T14:55:09.276Z,101204.05
2018-02-20T14:57:37.637Z,101210.48
2018-02-20T15:00:06.835Z,101205.23
2018-02-20T15:02:35.954Z,101202.44
2018-02-20T15:05:04.315Z,101211.77
2018-02-20T15:07:33.420Z,101218.75
2018-02-20T15:10:02.144Z,101207.64
2018-02-20T15:12:30.483Z,101214.55
2018-02-20T15:14:58.822Z,101215.45
2018-02-20T15:17:27.167Z,101219.50
2018-02-20T15:19:56.311Z,101225.55
2018-02-20T15:22:25.419Z,101228.03
2018-02-20T15:24:54.554Z,101230.85
2018-02-20T15:27:23.029Z,101230.45
2018-02-20T15:29:52.341Z,101232.77
2018-02-20T15:32:20.696Z,101237.41
2018-02-20T15:34:49.077Z,101243.41
2018-02-20T15:37:18.078Z,101245.55
2018-02-20T15:39:46.443Z,101240.58
2018-02-20T15:42:24.570Z,101250.77
2018-02-20T15:44:52.951Z,101250.51
2018-02-20T15:47:21.338Z,101254.72
2018-02-20T15:49:49.673Z,101257.28
2018-02-20T15:52:18.101Z,101259.27
2018-02-20T15:54:46.524Z,101259.09
2018-02-20T15:57:14.888Z,101265.53
2018-02-20T15:59:43.282Z,101271.00
2018-02-20T16:02:11.608Z,101267.76
2018-02-20T16:04:39.945Z,101275.04
2018-02-20T16:07:09.093Z,101284.52
2018-02-20T16:09:39.187Z,101286.85
2018-02-20T16:12:09.238Z,101285.02
2018-02-20T16:14:37.578Z,101287.42
2018-02-20T16:17:06.981Z,101287.34
2018-02-20T16:19:35.341Z,101294.43
2018-02-20T16:22:04.857Z,101292.47
2018-02-20T16:24:33.821Z,101296.80
2018-02-20T16:27:02.901Z,101296.72
2018-02-20T16:29:32.071Z,101301.22
2018-02-20T16:32:00.433Z,101301.55
2018-02-20T16:34:28.752Z,101302.91
2018-02-20T16:36:58.270Z,101306.53
2018-02-20T16:39:26.625Z,101309.78
2018-02-20T16:41:55.765Z,101320.12
2018-02-20T16:44:24.106Z,101327.75
2018-02-20T16:46:53.248Z,101327.23
2018-02-20T16:49:22.382Z,101328.84
2018-02-20T16:51:51.104Z,101331.48
2018-02-20T16:54:19.496Z,101334.10
2018-02-20T16:56:49.336Z,101332.73
2018-02-20T16:59:18.094Z,101333.58
2018-02-20T17:01:46.830Z,101343.91
2018-02-20T17:04:15.951Z,101339.11
2018-02-20T17:06:45.092Z,101351.45
2018-02-20T17:09:14.511Z,101345.33
2018-02-20T17:11:42.949Z,101348.80
2018-02-20T17:14:11.768Z,101347.91
2018-02-20T17:16:40.897Z,101353.12
2018-02-20T17:19:09.297Z,101350.55
2018-02-20T17:21:38.534Z,101351.09
2018-02-20T17:24:06.848Z,101353.55
2018-02-20T17:26:35.267Z,101360.25
2018-02-20T17:29:03.608Z,101358.09
2018-02-20T17:31:33.072Z,101261.11
2018-02-20T17:34:01.484Z,101361.14
2018-02-20T17:36:29.956Z,101365.39
2018-02-20T17:38:58.415Z,101363.62
2018-02-20T17:41:27.208Z,101365.97
2018-02-20T17:43:55.577Z,101370.31
2018-02-20T17:46:23.996Z,101377.22
2018-02-20T17:48:53.133Z,101375.19
2018-02-20T17:51:22.448Z,101372.64
2018-02-20T17:53:51.394Z,101378.02
2018-02-20T17:56:20.651Z,101370.53
2018-02-20T17:58:49.028Z,101379.74
2018-02-20T18:01:17.390Z,101385.83
2018-02-20T18:03:45.710Z,101384.33
2018-02-20T18:06:14.051Z,101385.13
2018-02-20T18:08:43.198Z,101382.50
2018-02-20T18:11:13.394Z,101379.92
2018-02-20T18:13:42.944Z,101389.63
2018-02-20T18:16:12.054Z,101391.64
2018-02-20T18:18:40.449Z,101401.89
2018-02-20T18:21:08.824Z,101390.48
2018-02-20T18:23:37.236Z,101396.52
2018-02-20T18:26:05.679Z,101398.84
2018-02-20T18:28:34.053Z,101405.55
2018-02-20T18:31:02.459Z,101403.01
2018-02-20T18:33:30.810Z,101405.44
2018-02-20T18:35:59.919Z,101413.80
2018-02-20T18:38:29.038Z,101415.75
2018-02-20T18:40:59.870Z,101418.02
2018-02-20T18:43:28.853Z,101420.53
2018-02-20T18:45:57.207Z,101420.60
2018-02-20T18:48:25.563Z,101421.40
2018-02-20T18:50:58.428Z,101422.64
2018-02-20T18:53:27.501Z,101435.98
2018-02-20T18:55:56.641Z,101442.96
2018-02-20T18:58:25.066Z,101439.16
2018-02-20T19:00:54.203Z,101445.28
2018-02-20T19:03:23.473Z,101445.91
2018-02-20T19:05:52.293Z,101443.56
2018-02-20T19:08:22.433Z,101439.72
2018-02-20T19:10:51.200Z,101443.19
2018-02-20T19:13:21.220Z,101444.86
2018-02-20T19:15:50.449Z,101441.63
2018-02-20T19:18:18.772Z,101439.28
2018-02-20T19:20:47.152Z,101441.19
2018-02-20T19:23:15.786Z,101430.50
2018-02-20T19:25:44.915Z,101436.90
2018-02-20T19:28:13.673Z,101433.80
2018-02-20T19:30:44.803Z,101430.95
2018-02-20T19:33:14.109Z,101435.04
2018-02-20T19:35:43.007Z,101437.48
2018-02-20T19:38:11.383Z,101440.60
2018-02-20T19:40:40.639Z,101440.80
2018-02-20T19:43:08.977Z,101442.41
2018-02-20T19:45:38.048Z,101441.59
2018-02-20T19:48:07.403Z,101440.70
2018-02-20T19:50:37.023Z,101438.10
2018-02-20T19:53:06.130Z,101441.94
2018-02-20T19:55:34.505Z,101438.00
2018-02-20T19:58:03.295Z,101437.59
2018-02-20T20:00:34.418Z,101441.39
2018-02-20T20:03:02.847Z,101439.58
2018-02-20T20:05:31.276Z,101443.27
2018-02-20T20:08:00.429Z,101444.88
2018-02-20T20:10:29.687Z,101448.44
2018-02-20T20:12:58.113Z,101449.68
2018-02-20T20:15:27.208Z,101450.63
2018-02-20T20:17:56.479Z,101454.72
2018-02-20T20:20:36.904Z,101452.48
2018-02-20T20:22:55.945Z,101456.22
2018-02-20T20:25:24.290Z,101459.84
2018-02-20T20:27:53.813Z,101464.22
2018-02-20T20:30:22.165Z,101459.91
2018-02-20T20:32:51.312Z,101457.94
2018-02-20T20:35:20.287Z,101470.78
2018-02-20T20:37:48.651Z,101478.30
2018-02-20T20:40:19.519Z,101476.66
2018-02-20T20:42:48.692Z,101476.72
2018-02-20T20:45:18.036Z,101482.02
2018-02-20T20:47:47.092Z,101487.17
2018-02-20T20:50:16.177Z,101479.02
2018-02-20T20:52:44.612Z,101490.56
2018-02-20T20:55:12.985Z,101489.95
2018-02-20T20:57:42.116Z,101495.63
2018-02-20T21:00:11.254Z,101485.17
2018-02-20T21:02:40.361Z,101488.11
2018-02-20T21:05:10.207Z,101480.72
2018-02-20T21:07:38.817Z,101485.34
2018-02-20T21:10:07.296Z,101486.56
2018-02-20T21:12:35.699Z,101481.31
2018-02-20T21:15:04.059Z,101481.42
2018-02-20T21:17:32.454Z,101479.48
2018-02-20T21:20:01.717Z,101481.11
2018-02-20T21:22:31.014Z,101476.20
2018-02-20T21:24:59.458Z,101479.59
2018-02-20T21:27:30.057Z,101483.58
2018-02-20T21:29:59.266Z,101476.58
2018-02-20T21:32:27.607Z,101473.20
2018-02-20T21:34:56.014Z,101477.45
2018-02-20T21:37:27.030Z,101476.45
2018-02-20T21:39:57.035Z,101474.43
2018-02-20T21:42:25.540Z,101472.93
2018-02-20T21:44:53.909Z,101483.08
2018-02-20T21:47:23.370Z,101478.64
2018-02-20T21:49:51.768Z,101463.19
2018-02-20T21:52:20.265Z,101486.59
2018-02-20T21:54:51.400Z,101491.79
2018-02-20T21:57:19.724Z,101488.11
2018-02-20T21:59:49.689Z,101490.41
2018-02-20T22:02:18.021Z,101493.45
2018-02-20T22:04:46.355Z,101496.43
2018-02-20T22:07:14.725Z,101497.72
2018-02-20T22:09:43.070Z,101494.30
2018-02-20T22:12:12.215Z,101493.34
2018-02-20T22:14:40.541Z,101500.63
2018-02-20T22:17:09.672Z,101494.65
2018-02-20T22:19:37.993Z,101494.55
2018-02-20T22:22:06.360Z,101494.84
2018-02-20T22:24:34.926Z,101500.59
2018-02-20T22:27:03.663Z,101498.17
2018-02-20T22:29:32.789Z,101499.69
2018-02-20T22:32:01.142Z,101500.82
2018-02-20T22:34:29.478Z,101497.58
2018-02-20T22:37:01.530Z,101500.73
2018-02-20T22:39:30.277Z,101506.98
2018-02-20T22:41:58.661Z,101502.97
2018-02-20T22:44:26.977Z,101505.79
2018-02-20T22:46:55.344Z,101500.31
2018-02-20T22:49:23.723Z,101503.05
2018-02-20T22:51:52.085Z,101508.91
2018-02-20T22:54:20.457Z,101506.61
2018-02-20T22:56:48.819Z,101512.39
2018-02-20T22:59:17.202Z,101513.78
2018-02-20T23:01:45.536Z,101512.13
2018-02-20T23:04:14.375Z,101515.28
2018-02-20T23:06:42.743Z,101516.49
2018-02-20T23:09:11.069Z,101520.09
2018-02-20T23:11:47.843Z,101511.64
2018-02-20T23:14:16.189Z,101515.20
2018-02-20T23:16:44.503Z,101513.99
2018-02-20T23:19:12.870Z,101511.07
2018-02-20T23:21:41.179Z,101505.97
2018-02-20T23:24:09.537Z,101514.20
2018-02-20T23:26:37.877Z,101509.88
2018-02-20T23:29:06.239Z,101508.73
2018-02-20T23:31:34.633Z,101511.63
2018-02-20T23:34:02.949Z,101507.45
2018-02-20T23:36:31.324Z,101509.05
2018-02-20T23:38:59.669Z,101511.27
2018-02-20T23:41:28.025Z,101516.47
2018-02-20T23:43:56.432Z,101522.59
2018-02-20T23:46:24.784Z,101525.55
2018-02-20T23:48:53.129Z,101527.95
2018-02-20T23:51:26.921Z,101526.89
2018-02-20T23:53:55.273Z,101530.71
2018-02-20T23:56:23.661Z,101534.44
2018-02-20T23:58:52.037Z,101532.09
